Time;durP1;ratioP1;P1;durP2;ratioP2;P2;SDS_P1;SDS_P2;PMS_P1;PMS_P2;Temp;Humidity;BMP_temperature;BMP_pressure;BME280_temperature;BME280_humidity;BME280_pressure;Samples;Min_cycle;Max_cycle;Signal;HPM_P1;HPM_P2
2022/10/05 00:01:51;;;;;;;5.43;2.60;;;11.60;99.90;;;;;;4972594;28;20510;-70
2022/10/05 00:04:19;;;;;;;6.47;2.45;;;11.50;99.90;;;;;;4972189;28;20034;-70
2022/10/05 00:06:54;;;;;;;3.88;2.15;;;11.50;99.90;;;;;;4987606;28;20086;-70
2022/10/05 00:09:20;;;;;;;5.22;2.42;;;11.60;99.90;;;;;;4986943;28;20521;-70
2022/10/05 00:11:48;;;;;;;6.68;2.90;;;11.60;99.90;;;;;;4987547;28;20035;-70
2022/10/05 00:14:31;;;;;;;7.57;3.42;;;11.50;99.90;;;;;;4972112;28;20109;-70
2022/10/05 00:16:57;;;;;;;8.05;3.58;;;11.60;99.90;;;;;;4972459;28;20031;-70
2022/10/05 00:19:32;;;;;;;8.30;3.67;;;11.50;99.90;;;;;;4972364;28;20045;-70
2022/10/05 00:22:18;;;;;;;10.57;3.17;;;11.50;99.90;;;;;;4986779;28;20039;-70
2022/10/05 00:24:45;;;;;;;5.90;3.75;;;11.40;99.90;;;;;;4986510;28;20568;-70
2022/10/05 00:27:22;;;;;;;7.05;3.70;;;11.40;99.90;;;;;;4972232;28;20022;-70
2022/10/05 00:29:50;;;;;;;8.65;3.58;;;11.60;99.90;;;;;;4987067;28;20368;-70
2022/10/05 00:32:16;;;;;;;6.38;3.38;;;11.60;99.90;;;;;;4987144;28;20054;-70
2022/10/05 00:34:44;;;;;;;5.45;2.97;;;11.60;99.90;;;;;;4986830;28;20505;-70
2022/10/05 00:37:10;;;;;;;7.70;3.67;;;11.60;99.90;;;;;;4987038;28;20098;-70
2022/10/05 00:39:38;;;;;;;12.38;3.47;;;11.60;99.90;;;;;;4987297;28;20690;-70
2022/10/05 00:42:21;;;;;;;6.95;3.20;;;11.60;99.90;;;;;;4986873;28;20031;-70
2022/10/05 00:44:55;;;;;;;12.02;4.78;;;11.60;99.90;;;;;;4970974;28;20050;-70
2022/10/05 00:47:51;;;;;;;13.57;4.22;;;11.60;99.90;;;;;;4987117;28;20030;-70
2022/10/05 00:50:26;;;;;;;7.13;3.45;;;11.60;99.90;;;;;;4986182;28;20069;-70
2022/10/05 00:53:38;;;;;;;12.25;2.95;;;11.60;99.90;;;;;;4971547;28;20415;-71
2022/10/05 00:56:32;;;;;;;5.20;2.90;;;11.60;99.90;;;;;;4972081;28;20030;-70
2022/10/05 00:59:35;;;;;;;6.18;3.63;;;11.70;99.90;;;;;;4972079;28;20031;-70
2022/10/05 01:02:26;;;;;;;5.22;2.35;;;11.60;99.90;;;;;;4984736;28;20039;-70
2022/10/05 01:05:22;;;;;;;5.45;3.17;;;11.60;99.90;;;;;;4965920;28;20082;-70
2022/10/05 01:08:13;;;;;;;6.53;3.60;;;11.50;99.90;;;;;;4967780;28;20042;-70
2022/10/05 01:10:45;;;;;;;6.77;3.10;;;11.50;99.90;;;;;;4978533;28;20063;-70
2022/10/05 01:13:43;;;;;;;9.40;3.30;;;11.50;99.90;;;;;;4989392;28;20109;-70
2022/10/05 01:16:20;;;;;;;7.88;4.00;;;11.50;99.90;;;;;;4981095;28;20031;-70
2022/10/05 01:19:11;;;;;;;6.57;3.17;;;11.50;99.90;;;;;;4958124;28;20030;-70
2022/10/05 01:21:52;;;;;;;6.63;3.78;;;11.70;99.90;;;;;;4975520;28;20053;-70
2022/10/05 01:24:48;;;;;;;8.55;4.28;;;11.70;99.90;;;;;;4992444;23;20042;-72
2022/10/05 01:27:39;;;;;;;9.65;4.10;;;11.80;99.90;;;;;;4988446;28;20112;-72
2022/10/05 01:30:17;;;;;;;6.60;3.30;;;11.70;99.90;;;;;;4993573;28;20053;-72
2022/10/05 01:33:11;;;;;;;4.80;2.88;;;11.80;99.90;;;;;;4993276;28;20022;-72
2022/10/05 01:35:55;;;;;;;4.60;2.78;;;11.80;99.90;;;;;;4974546;28;20031;-72
2022/10/05 01:38:56;;;;;;;8.13;3.20;;;11.70;99.90;;;;;;4974912;28;20038;-72
2022/10/05 01:41:39;;;;;;;6.80;3.47;;;11.70;99.90;;;;;;4975301;28;20027;-71
2022/10/05 01:44:16;;;;;;;8.85;3.75;;;11.60;99.90;;;;;;4973541;28;20478;-72
2022/10/05 01:47:27;;;;;;;9.38;5.07;;;11.60;99.90;;;;;;4973709;28;20475;-72
2022/10/05 01:50:37;;;;;;;13.17;4.60;;;11.50;99.90;;;;;;4931416;28;20163;-72
2022/10/05 01:53:40;;;;;;;10.35;4.50;;;11.30;99.90;;;;;;4923389;28;20034;-72
2022/10/05 01:56:36;;;;;;;7.25;4.47;;;11.20;99.90;;;;;;4973747;28;20510;-72
2022/10/05 01:59:18;;;;;;;9.65;4.65;;;11.10;99.90;;;;;;4973914;28;20031;-72
2022/10/05 02:02:05;;;;;;;16.30;4.65;;;10.90;99.90;;;;;;4973778;28;20109;-71
2022/10/05 02:04:48;;;;;;;9.80;4.50;;;10.90;99.90;;;;;;4974046;28;20030;-72
2022/10/05 02:07:39;;;;;;;13.88;4.57;;;10.90;99.90;;;;;;4973418;28;20031;-72
2022/10/05 02:10:34;;;;;;;7.97;2.90;;;10.80;99.90;;;;;;4973628;28;20023;-72
2022/10/05 02:13:24;;;;;;;6.15;3.63;;;10.80;99.90;;;;;;4973213;28;20031;-72
2022/10/05 02:16:00;;;;;;;12.43;5.18;;;10.90;99.90;;;;;;4962050;28;20522;-72
2022/10/05 02:18:42;;;;;;;6.82;4.53;;;10.80;99.90;;;;;;4938425;29;20045;-71
2022/10/05 02:21:08;;;;;;;9.57;4.20;;;10.70;99.90;;;;;;4939014;29;20622;-72
2022/10/05 02:23:39;;;;;;;6.30;4.03;;;10.70;99.90;;;;;;4954148;28;20105;-72
2022/10/05 02:26:07;;;;;;;5.43;3.13;;;10.60;99.90;;;;;;4938066;29;20031;-72
2022/10/05 02:28:44;;;;;;;4.93;3.05;;;10.70;99.90;;;;;;4948013;28;20026;-72
2022/10/05 02:31:16;;;;;;;7.55;3.13;;;10.70;99.90;;;;;;4972908;28;20396;-72
2022/10/05 02:33:42;;;;;;;7.55;3.70;;;10.60;99.90;;;;;;4972486;28;20460;-72
2022/10/05 02:36:16;;;;;;;11.32;3.78;;;10.50;99.90;;;;;;4974153;28;20026;-72
2022/10/05 02:39:17;;;;;;;10.20;3.58;;;10.50;99.90;;;;;;4974044;28;20046;-72
2022/10/05 02:42:14;;;;;;;15.77;3.97;;;10.50;99.90;;;;;;4974012;28;20030;-72
2022/10/05 02:45:18;;;;;;;4.68;2.85;;;10.40;99.90;;;;;;4972817;28;20050;-72
2022/10/05 02:48:08;;;;;;;6.18;3.20;;;10.40;99.90;;;;;;4973755;28;20059;-71
2022/10/05 02:51:01;;;;;;;5.10;3.25;;;10.30;99.90;;;;;;4974124;28;20442;-72
2022/10/05 02:54:23;;;;;;;6.63;3.30;;;10.30;99.90;;;;;;4973396;28;20035;-72
2022/10/05 02:57:01;;;;;;;;;;;10.30;99.90;;;;;;4973105;28;20114;-72
2022/10/05 02:59:48;;;;;;;6.45;3.55;;;10.30;99.90;;;;;;4973710;28;19980;-72
2022/10/05 03:02:20;;;;;;;7.20;3.22;;;10.30;99.90;;;;;;4972238;28;20030;-72
2022/10/05 03:05:11;;;;;;;5.30;2.67;;;10.30;99.90;;;;;;4973293;28;20058;-72
2022/10/05 03:08:11;;;;;;;8.77;4.00;;;10.30;99.90;;;;;;4972391;28;20038;-72
2022/10/05 03:10:51;;;;;;;13.13;3.55;;;10.50;99.90;;;;;;4973501;28;20049;-72
2022/10/05 03:13:36;;;;;;;6.22;2.95;;;10.50;99.90;;;;;;4973019;28;20062;-72
2022/10/05 03:16:34;;;;;;;15.07;3.88;;;10.60;99.90;;;;;;4959655;28;20035;-72
2022/10/05 03:19:47;;;;;;;5.57;3.08;;;10.60;99.90;;;;;;4937840;29;20390;-72
2022/10/05 03:22:49;;;;;;;11.18;3.05;;;10.60;99.90;;;;;;4938555;29;20033;-72
2022/10/05 03:25:32;;;;;;;;;;;10.60;99.90;;;;;;4938601;29;20032;-72
2022/10/05 03:28:31;;;;;;;6.88;3.97;;;10.60;99.90;;;;;;4937891;29;19917;-72
2022/10/05 03:31:04;;;;;;;6.05;2.83;;;10.60;99.90;;;;;;4938055;29;20039;-72
2022/10/05 03:33:52;;;;;;;8.88;4.20;;;10.60;99.90;;;;;;4953158;28;20070;-70
2022/10/05 03:36:41;;;;;;;8.02;4.20;;;10.70;99.90;;;;;;4937333;29;20035;-70
2022/10/05 03:39:19;;;;;;;11.40;3.42;;;10.70;99.90;;;;;;4953477;29;20035;-70
2022/10/05 03:42:09;;;;;;;4.32;2.65;;;10.70;99.90;;;;;;4943591;28;20033;-71
2022/10/05 03:45:20;;;;;;;6.38;3.38;;;10.80;99.90;;;;;;4971244;28;20378;-71
2022/10/05 03:48:03;;;;;;;6.88;2.92;;;10.80;99.90;;;;;;4972632;28;20035;-72
2022/10/05 03:50:57;;;;;;;7.20;3.78;;;10.80;99.90;;;;;;4971516;28;20051;-72
2022/10/05 03:53:30;;;;;;;5.97;3.63;;;10.70;99.90;;;;;;4971289;28;20391;-72
2022/10/05 03:56:15;;;;;;;14.20;3.85;;;10.80;99.90;;;;;;4954908;28;20039;-72
2022/10/05 03:59:06;;;;;;;8.70;4.90;;;10.90;99.90;;;;;;4936748;28;20069;-71
2022/10/05 04:01:38;;;;;;;;;;;10.80;99.90;;;;;;4937470;29;20027;-72
2022/10/05 04:04:10;;;;;;;4.90;2.83;;;10.90;99.90;;;;;;4974327;28;19969;-71
2022/10/05 04:06:47;;;;;;;7.57;3.60;;;10.80;99.90;;;;;;4957998;28;20023;-71
2022/10/05 04:09:26;;;;;;;4.82;2.85;;;10.90;99.90;;;;;;4957510;28;20027;-72
2022/10/05 04:12:29;;;;;;;10.05;4.65;;;10.80;99.90;;;;;;4969211;28;20031;-71
2022/10/05 04:15:05;;;;;;;12.40;4.35;;;10.80;99.90;;;;;;4970855;28;20106;-71
2022/10/05 04:17:41;;;;;;;9.98;3.75;;;10.80;99.90;;;;;;4971120;28;20398;-71
2022/10/05 04:20:29;;;;;;;13.70;4.20;;;10.70;99.90;;;;;;4970980;28;20109;-71
2022/10/05 04:23:24;;;;;;;4.32;2.53;;;10.60;99.90;;;;;;4971777;28;20062;-71
2022/10/05 04:26:01;;;;;;;10.75;3.58;;;10.60;99.90;;;;;;4970859;28;20093;-71
2022/10/05 04:29:11;;;;;;;7.65;3.67;;;10.60;99.90;;;;;;4970890;28;20085;-71
2022/10/05 04:32:29;;;;;;;5.78;3.25;;;10.50;99.90;;;;;;4972128;28;20034;-70
2022/10/05 04:35:51;;;;;;;6.95;4.22;;;10.50;99.90;;;;;;4952324;29;20494;-70
2022/10/05 04:38:34;;;;;;;9.85;4.40;;;10.50;99.90;;;;;;4952521;29;20066;-71
2022/10/05 04:41:33;;;;;;;6.25;3.80;;;10.50;99.90;;;;;;4924666;29;20035;-71
2022/10/05 04:44:23;;;;;;;7.93;3.63;;;10.40;99.90;;;;;;4922105;29;20047;-71
2022/10/05 04:47:40;;;;;;;7.68;3.70;;;10.40;99.90;;;;;;4952276;29;20192;-71
2022/10/05 04:50:27;;;;;;;7.13;4.00;;;10.50;99.90;;;;;;4951436;29;20031;-71
2022/10/05 04:53:02;;;;;;;9.30;4.15;;;10.60;99.90;;;;;;4934970;29;20043;-71
2022/10/05 04:55:46;;;;;;;11.07;4.93;;;10.60;99.90;;;;;;4952348;29;20027;-72
2022/10/05 04:58:38;;;;;;;9.65;5.18;;;10.60;99.90;;;;;;4927031;28;20038;-71
2022/10/05 05:01:34;;;;;;;6.90;3.53;;;10.50;99.90;;;;;;4951674;29;20046;-71
2022/10/05 05:05:06;;;;;;;6.95;3.58;;;10.50;99.90;;;;;;4967729;28;20026;-71
2022/10/05 05:07:48;;;;;;;8.95;4.47;;;10.40;99.90;;;;;;4956870;28;20054;-70
2022/10/05 05:10:18;;;;;;;8.65;3.83;;;10.50;99.90;;;;;;4970589;28;20030;-71
2022/10/05 05:13:05;;;;;;;7.97;4.75;;;10.50;99.90;;;;;;4971017;28;20042;-70
2022/10/05 05:15:47;;;;;;;8.88;4.68;;;10.40;99.90;;;;;;4971526;28;20398;-71
2022/10/05 05:18:43;;;;;;;13.85;4.38;;;10.40;99.90;;;;;;4954055;28;20372;-71
2022/10/05 05:21:39;;;;;;;12.02;4.82;;;10.50;99.90;;;;;;4970342;28;20264;-71
2022/10/05 05:24:39;;;;;;;10.50;4.95;;;10.50;99.90;;;;;;4969814;28;20035;-71
2022/10/05 05:27:44;;;;;;;8.10;4.67;;;10.50;99.90;;;;;;4970248;28;20031;-70
2022/10/05 05:30:22;;;;;;;5.45;3.47;;;10.40;99.90;;;;;;4948655;28;20041;-71
2022/10/05 05:33:41;;;;;;;8.40;4.43;;;10.40;99.90;;;;;;4970151;28;20023;-71
2022/10/05 05:36:36;;;;;;;6.25;3.95;;;10.40;99.90;;;;;;4970252;28;20038;-71
2022/10/05 05:39:27;;;;;;;8.50;4.53;;;10.40;99.90;;;;;;4965786;28;20034;-71
2022/10/05 05:41:59;;;;;;;7.80;4.43;;;10.40;99.90;;;;;;4949863;28;20019;-72
2022/10/05 05:44:46;;;;;;;9.35;3.88;;;10.30;99.90;;;;;;4951189;28;20487;-73
2022/10/05 05:47:36;;;;;;;13.45;5.28;;;10.30;99.90;;;;;;4936259;28;20484;-75
2022/10/05 05:50:31;;;;;;;8.40;4.57;;;10.40;99.90;;;;;;4934611;29;20098;-72
2022/10/05 05:53:38;;;;;;;7.45;3.65;;;10.40;99.90;;;;;;4951452;28;20031;-75
2022/10/05 05:56:12;;;;;;;8.93;4.70;;;10.40;99.90;;;;;;4941813;28;20047;-73
2022/10/05 05:59:00;;;;;;;15.45;5.68;;;10.50;99.90;;;;;;4973180;28;20058;-74
2022/10/05 06:01:39;;;;;;;9.73;4.97;;;10.50;99.90;;;;;;4969861;28;20051;-73
2022/10/05 06:04:15;;;;;;;9.18;5.72;;;10.50;99.90;;;;;;4955288;28;20058;-73
2022/10/05 06:06:47;;;;;;;11.73;5.93;;;10.40;99.90;;;;;;4963571;28;20030;-73
2022/10/05 06:09:22;;;;;;;9.52;4.85;;;10.40;99.90;;;;;;4941154;28;20031;-74
2022/10/05 06:11:54;;;;;;;12.05;5.43;;;10.40;99.90;;;;;;4940312;29;20027;-72
2022/10/05 06:14:59;;;;;;;11.95;6.75;;;10.40;99.90;;;;;;4921587;28;20031;-73
2022/10/05 06:17:46;;;;;;;15.82;6.20;;;10.40;99.90;;;;;;4947012;28;20105;-73
2022/10/05 06:20:45;;;;;;;15.48;6.45;;;10.50;99.90;;;;;;4937863;29;20031;-74
2022/10/05 06:23:28;;;;;;;16.67;6.57;;;10.60;99.90;;;;;;4950680;28;20393;-73
2022/10/05 06:27:03;;;;;;;19.48;7.43;;;10.50;99.90;;;;;;4937405;29;20480;-72
2022/10/05 06:30:04;;;;;;;11.00;5.75;;;10.60;99.90;;;;;;4920934;29;20058;-74
2022/10/05 06:32:49;;;;;;;11.65;5.82;;;10.60;99.90;;;;;;4957800;28;20383;-73
2022/10/05 06:35:41;;;;;;;11.02;5.50;;;10.60;99.90;;;;;;4972730;28;20042;-75
2022/10/05 06:38:52;;;;;;;14.20;7.47;;;10.60;99.90;;;;;;4973752;28;20526;-74
2022/10/05 06:42:00;;;;;;;13.23;7.35;;;10.50;99.90;;;;;;4973790;28;20034;-75
2022/10/05 06:45:17;;;;;;;19.92;6.97;;;10.50;99.90;;;;;;4972325;28;20038;-75
2022/10/05 06:48:14;;;;;;;24.67;7.47;;;10.50;99.90;;;;;;4961891;28;20053;-72
2022/10/05 06:51:08;;;;;;;23.60;9.90;;;10.50;99.90;;;;;;4973645;28;20027;-71
2022/10/05 06:53:42;;;;;;;15.13;7.68;;;10.50;99.90;;;;;;4972299;28;20039;-71
2022/10/05 06:56:51;;;;;;;26.60;9.65;;;10.60;99.90;;;;;;4972184;28;20018;-70
2022/10/05 07:00:02;;;;;;;27.08;8.10;;;10.60;99.90;;;;;;4936120;28;20173;-71
2022/10/05 07:02:43;;;;;;;;;;;10.70;99.90;;;;;;4967067;28;20108;-71
2022/10/05 07:05:41;;;;;;;8.52;4.47;;;10.80;99.90;;;;;;4955876;28;19958;-70
2022/10/05 07:08:32;;;;;;;12.27;6.43;;;10.90;99.90;;;;;;4973303;28;20027;-70
2022/10/05 07:11:29;;;;;;;;;;;11.00;99.90;;;;;;4972383;28;20046;-71
2022/10/05 07:14:32;;;;;;;8.60;4.72;;;11.30;99.90;;;;;;4972853;28;19910;-71
2022/10/05 07:17:44;;;;;;;9.15;4.65;;;11.40;99.90;;;;;;4972277;28;20113;-70
2022/10/05 07:20:48;;;;;;;13.68;6.75;;;11.40;99.90;;;;;;4972829;28;20483;-67
2022/10/05 07:23:49;;;;;;;7.78;4.55;;;11.60;99.90;;;;;;4971516;28;20038;-67
2022/10/05 07:26:41;;;;;;;;;;;11.70;99.90;;;;;;4973438;28;20035;-67
2022/10/05 07:29:06;;;;;;;19.35;5.97;;;11.70;99.90;;;;;;4971798;28;19910;-67
2022/10/05 07:32:07;;;;;;;14.73;5.40;;;11.80;99.90;;;;;;4973041;28;20050;-67
2022/10/05 07:34:56;;;;;;;10.23;5.40;;;11.90;99.90;;;;;;4953609;29;20058;-67
2022/10/05 07:37:53;;;;;;;9.70;4.80;;;11.90;99.90;;;;;;4953442;29;20046;-67
2022/10/05 07:40:43;;;;;;;9.20;4.38;;;12.00;99.90;;;;;;4953184;28;20073;-67
2022/10/05 07:43:25;;;;;;;9.30;4.67;;;12.20;99.90;;;;;;4991576;23;20061;-69
2022/10/05 07:46:24;;;;;;;20.58;5.25;;;12.30;99.90;;;;;;4990578;28;20288;-69
2022/10/05 07:49:25;;;;;;;10.93;4.82;;;12.40;99.90;;;;;;4990861;28;20041;-69
2022/10/05 07:51:59;;;;;;;8.05;4.22;;;12.50;99.90;;;;;;4975623;28;20379;-70
2022/10/05 07:54:44;;;;;;;8.00;4.25;;;12.50;99.90;;;;;;5006132;28;20072;-70
2022/10/05 07:57:49;;;;;;;8.35;4.82;;;12.60;99.90;;;;;;4992130;28;20030;-69
2022/10/05 08:00:22;;;;;;;11.57;4.93;;;12.60;99.90;;;;;;4991698;28;20104;-70
2022/10/05 08:02:51;;;;;;;11.50;4.90;;;12.70;99.90;;;;;;4990463;28;20394;-70
2022/10/05 08:05:30;;;;;;;8.50;4.97;;;12.80;99.90;;;;;;4990323;28;20100;-68
2022/10/05 08:08:09;;;;;;;12.90;4.53;;;12.90;99.90;;;;;;4989481;28;20465;-69
2022/10/05 08:10:58;;;;;;;11.45;4.75;;;13.10;99.90;;;;;;4986709;28;20483;-70
2022/10/05 08:14:00;;;;;;;8.00;4.43;;;13.20;99.90;;;;;;4970419;28;20081;-69
2022/10/05 08:16:33;;;;;;;8.20;3.85;;;13.40;99.90;;;;;;4971812;28;20065;-69
2022/10/05 08:19:24;;;;;;;11.23;4.93;;;13.40;99.90;;;;;;4971032;28;20093;-69
2022/10/05 08:22:11;;;;;;;6.85;3.80;;;13.50;99.90;;;;;;4971364;28;20043;-69
2022/10/05 08:24:47;;;;;;;13.75;4.75;;;13.60;99.90;;;;;;4970577;28;20082;-70
2022/10/05 08:28:07;;;;;;;8.00;4.40;;;13.70;99.90;;;;;;4970512;28;20058;-70
2022/10/05 08:31:25;;;;;;;9.43;4.63;;;13.90;99.90;;;;;;4972010;28;20030;-70
2022/10/05 08:34:33;;;;;;;6.50;3.40;;;14.10;99.90;;;;;;4930548;29;20032;-70
2022/10/05 08:37:27;;;;;;;10.30;3.83;;;14.30;99.90;;;;;;4991419;28;20598;-69
2022/10/05 08:40:20;;;;;;;5.60;3.35;;;14.40;99.90;;;;;;4990048;28;20048;-69
2022/10/05 08:43:29;;;;;;;8.93;4.40;;;14.60;99.90;;;;;;4990943;28;20038;-70
2022/10/05 08:47:07;;;;;;;5.82;3.78;;;14.70;99.90;;;;;;4989995;28;20034;-69
2022/10/05 08:49:56;;;;;;;5.00;3.22;;;14.80;99.90;;;;;;4893137;29;20068;-70
2022/10/05 08:52:30;;;;;;;5.13;3.10;;;14.80;99.90;;;;;;4989576;28;20030;-69
2022/10/05 08:55:29;;;;;;;5.47;3.47;;;14.90;99.90;;;;;;4991240;28;20045;-69
2022/10/05 08:58:45;;;;;;;7.53;3.75;;;15.00;99.90;;;;;;4990973;28;20030;-69
2022/10/05 09:01:34;;;;;;;9.05;3.78;;;15.20;99.90;;;;;;4989836;28;20034;-69
2022/10/05 09:04:56;;;;;;;7.35;4.00;;;15.30;99.90;;;;;;4989461;28;20034;-69
2022/10/05 09:08:08;;;;;;;9.73;4.00;;;15.30;99.90;;;;;;4990961;28;20042;-70
2022/10/05 09:11:02;;;;;;;7.82;3.50;;;15.30;99.90;;;;;;4990192;28;20501;-70
2022/10/05 09:13:49;;;;;;;5.28;2.92;;;15.30;99.90;;;;;;4990666;28;20088;-70
2022/10/05 09:16:55;;;;;;;5.53;2.83;;;15.50;99.90;;;;;;4991078;28;20121;-70
2022/10/05 09:19:56;;;;;;;8.85;4.05;;;15.70;99.90;;;;;;4990878;28;20445;-70
2022/10/05 09:22:40;;;;;;;6.67;2.97;;;15.70;99.90;;;;;;4989183;28;20168;-70
2022/10/05 09:25:29;;;;;;;5.60;2.88;;;16.00;99.90;;;;;;4989670;28;20141;-70
2022/10/05 09:28:04;;;;;;;4.97;2.83;;;16.00;99.90;;;;;;4989988;28;20065;-70
2022/10/05 09:30:51;;;;;;;8.88;4.47;;;16.20;99.90;;;;;;4989775;28;20034;-70
2022/10/05 09:33:25;;;;;;;7.75;3.63;;;16.20;99.90;;;;;;4992531;28;20395;-70
2022/10/05 09:36:29;;;;;;;9.35;4.05;;;16.40;99.90;;;;;;4994647;28;20041;-70
2022/10/05 09:39:45;;;;;;;8.70;3.05;;;16.70;99.90;;;;;;4994407;28;20042;-70
2022/10/05 09:42:49;;;;;;;7.57;3.90;;;16.70;99.90;;;;;;4907188;28;20056;-70
2022/10/05 09:45:47;;;;;;;6.20;2.85;;;16.90;99.90;;;;;;4993279;28;20037;-70
2022/10/05 09:49:00;;;;;;;10.82;4.70;;;16.90;99.90;;;;;;4993227;28;20103;-70
2022/10/05 09:51:57;;;;;;;7.78;2.83;;;17.10;99.90;;;;;;4994441;28;20030;-70
2022/10/05 09:55:04;;;;;;;15.60;3.35;;;17.30;99.90;;;;;;4993962;28;20109;-70
2022/10/05 09:58:11;;;;;;;9.07;3.65;;;17.50;99.90;;;;;;4993133;28;20038;-70
2022/10/05 10:01:19;;;;;;;4.40;2.78;;;17.50;99.90;;;;;;4993970;28;20062;-70
2022/10/05 10:04:31;;;;;;;6.25;2.55;;;17.80;99.90;;;;;;4993176;28;20026;-71
2022/10/05 10:07:49;;;;;;;4.03;2.55;;;17.90;99.90;;;;;;4992356;28;20027;-71
2022/10/05 10:10:52;;;;;;;3.92;2.58;;;17.70;99.90;;;;;;4993904;28;20121;-70
2022/10/05 10:13:54;;;;;;;6.70;2.25;;;18.00;99.90;;;;;;4993579;28;20062;-70
2022/10/05 10:16:44;;;;;;;5.47;2.55;;;18.20;99.90;;;;;;4992595;28;20354;-70
2022/10/05 10:19:36;;;;;;;6.18;2.17;;;18.60;99.90;;;;;;4994049;28;20070;-70
2022/10/05 10:22:57;;;;;;;6.35;2.05;;;18.70;99.90;;;;;;4992156;28;20201;-70
2022/10/05 10:25:33;;;;;;;;;;;18.90;99.90;;;;;;4988904;28;20038;-69
2022/10/05 10:28:16;;;;;;;4.47;2.20;;;19.10;99.90;;;;;;5008314;28;19917;-68
2022/10/05 10:31:16;;;;;;;6.05;1.90;;;19.00;99.90;;;;;;4990723;28;20034;-68
2022/10/05 10:34:30;;;;;;;3.88;1.65;;;19.40;99.90;;;;;;5006486;28;20030;-69
2022/10/05 10:37:34;;;;;;;3.55;1.75;;;19.40;99.90;;;;;;4992280;28;20070;-69
2022/10/05 10:40:37;;;;;;;6.28;2.90;;;19.20;99.90;;;;;;4973563;28;20039;-68
2022/10/05 10:43:40;;;;;;;2.72;1.50;;;19.10;99.90;;;;;;4973216;28;20038;-68
2022/10/05 10:46:25;;;;;;;7.65;1.98;;;19.50;99.90;;;;;;4948689;28;20035;-67
2022/10/05 10:49:40;;;;;;;4.00;2.13;;;19.70;99.90;;;;;;4972843;28;20023;-68
2022/10/05 10:52:17;;;;;;;2.70;1.60;;;20.20;99.90;;;;;;4913493;29;20047;-66
2022/10/05 10:55:46;;;;;;;6.57;1.58;;;20.20;99.90;;;;;;4962094;28;20074;-67
2022/10/05 10:58:41;;;;;;;5.47;2.05;;;20.60;99.90;;;;;;4913586;29;20032;-67
2022/10/05 11:01:41;;;;;;;4.95;1.70;;;20.10;99.90;;;;;;4897966;29;20031;-68
2022/10/05 11:04:27;;;;;;;3.47;1.50;;;20.80;99.90;;;;;;4929371;29;20076;-69
2022/10/05 11:07:39;;;;;;;5.53;1.65;;;21.00;99.90;;;;;;4932588;29;20055;-69
2022/10/05 11:10:46;;;;;;;3.42;1.73;;;21.40;99.90;;;;;;4916444;29;20623;-71
2022/10/05 11:13:27;;;;;;;2.42;1.30;;;21.20;99.90;;;;;;4932274;29;20122;-70
2022/10/05 11:16:14;;;;;;;2.55;1.45;;;21.70;99.90;;;;;;4932298;29;20048;-70
2022/10/05 11:19:30;;;;;;;2.25;1.40;;;22.70;99.90;;;;;;4932319;29;20035;-71
2022/10/05 11:22:21;;;;;;;2.45;1.42;;;22.10;99.90;;;;;;4931830;29;20102;-72
2022/10/05 11:25:26;;;;;;;2.83;1.33;;;23.40;99.90;;;;;;4932118;29;20055;-70
2022/10/05 11:28:13;;;;;;;2.47;1.20;;;23.20;99.90;;;;;;4936104;28;20038;-70
2022/10/05 11:31:23;;;;;;;4.25;1.85;;;23.90;99.90;;;;;;4992567;28;20038;-70
2022/10/05 11:34:25;;;;;;;3.97;0.90;;;23.10;99.90;;;;;;5006568;28;20045;-70
2022/10/05 11:37:29;;;;;;;2.92;1.58;;;24.70;99.90;;;;;;4999322;28;20054;-70
2022/10/05 11:40:37;;;;;;;3.10;1.10;;;24.80;99.90;;;;;;5005563;28;20042;-72
2022/10/05 11:43:33;;;;;;;2.65;1.23;;;25.20;98.30;;;;;;4986595;28;20450;-71
2022/10/05 11:46:26;;;;;;;3.60;1.20;;;24.30;99.90;;;;;;5011609;28;20045;-58
2022/10/05 11:49:33;;;;;;;3.88;1.70;;;25.80;97.40;;;;;;5026282;28;20061;-69
2022/10/05 11:52:09;;;;;;;6.03;1.15;;;25.80;98.40;;;;;;4971076;28;20043;-68
2022/10/05 11:55:07;;;;;;;2.22;1.27;;;25.90;97.20;;;;;;4971980;28;20031;-68
2022/10/05 11:57:47;;;;;;;2.25;1.25;;;25.30;98.10;;;;;;4970026;28;20051;-68
2022/10/05 12:00:22;;;;;;;2.33;1.02;;;26.70;96.80;;;;;;4981895;28;20036;-69
2022/10/05 12:03:28;;;;;;;1.98;1.25;;;27.00;95.10;;;;;;4997613;28;20544;-69
2022/10/05 12:06:11;;;;;;;2.10;0.88;;;26.90;94.80;;;;;;5025524;28;20038;-69
2022/10/05 12:09:04;;;;;;;2.05;0.93;;;24.80;98.60;;;;;;5011266;28;20032;-69
2022/10/05 12:11:57;;;;;;;1.90;1.25;;;25.70;97.00;;;;;;5006980;28;20038;-69
2022/10/05 12:14:57;;;;;;;2.55;1.27;;;25.30;96.90;;;;;;4989491;28;20030;-69
2022/10/05 12:17:45;;;;;;;3.78;0.95;;;25.50;96.50;;;;;;4972222;28;20060;-69
2022/10/05 12:20:39;;;;;;;2.63;0.90;;;25.30;97.50;;;;;;4986603;28;20031;-69
2022/10/05 12:23:17;;;;;;;2.13;1.27;;;25.80;96.10;;;;;;4971728;28;20473;-69
2022/10/05 12:26:13;;;;;;;4.35;1.42;;;26.40;96.00;;;;;;4971952;28;20041;-70
2022/10/05 12:28:52;;;;;;;2.13;1.20;;;25.10;97.70;;;;;;4959684;28;20101;-69
2022/10/05 12:31:41;;;;;;;1.92;1.13;;;26.40;95.50;;;;;;4986378;28;20019;-69
2022/10/05 12:34:19;;;;;;;6.70;0.98;;;25.70;96.30;;;;;;5005461;28;20038;-69
2022/10/05 12:37:10;;;;;;;3.50;1.25;;;24.90;97.90;;;;;;5009211;28;20066;-69
2022/10/05 12:39:44;;;;;;;2.30;1.27;;;25.00;98.70;;;;;;5004915;28;20112;-70
2022/10/05 12:43:03;;;;;;;2.05;0.98;;;25.90;96.10;;;;;;4991117;28;20137;-69
2022/10/05 12:45:57;;;;;;;2.53;1.23;;;26.50;95.40;;;;;;4973846;28;20054;-70
2022/10/05 12:48:42;;;;;;;4.78;1.25;;;27.00;95.20;;;;;;4991507;28;20076;-69
2022/10/05 12:51:40;;;;;;;2.00;1.27;;;26.10;95.20;;;;;;4991432;28;20035;-69
2022/10/05 12:55:04;;;;;;;3.13;1.25;;;26.40;95.70;;;;;;4991083;28;20045;-70
2022/10/05 12:58:26;;;;;;;2.28;1.30;;;26.30;95.40;;;;;;4982534;28;20410;-69
2022/10/05 13:01:00;;;;;;;2.80;1.65;;;26.50;95.30;;;;;;4990997;28;20038;-70
2022/10/05 13:03:36;;;;;;;6.68;2.33;;;25.80;97.10;;;;;;5016774;28;20096;-69
2022/10/05 13:06:27;;;;;;;2.55;1.30;;;26.70;95.50;;;;;;5025440;28;20533;-69
2022/10/05 13:09:17;;;;;;;2.72;1.40;;;26.20;95.60;;;;;;5014650;28;20112;-69
2022/10/05 13:11:59;;;;;;;3.05;1.27;;;26.40;95.50;;;;;;5027842;28;20040;-69
2022/10/05 13:14:54;;;;;;;1.70;1.08;;;26.00;96.20;;;;;;5028756;28;20116;-69
2022/10/05 13:17:33;;;;;;;1.30;0.88;;;26.10;96.20;;;;;;5029477;28;20033;-70
2022/10/05 13:20:19;;;;;;;1.77;1.13;;;26.70;96.30;;;;;;5014519;28;20029;-70
2022/10/05 13:23:23;;;;;;;2.17;1.15;;;27.10;94.40;;;;;;5027387;28;20018;-70
2022/10/05 13:26:06;;;;;;;1.95;1.20;;;25.90;96.20;;;;;;5014253;28;20091;-70
2022/10/05 13:29:15;;;;;;;4.07;1.20;;;26.70;95.40;;;;;;5028599;28;20386;-70
2022/10/05 13:32:27;;;;;;;3.15;1.35;;;26.00;96.00;;;;;;5026966;28;20030;-69
2022/10/05 13:35:21;;;;;;;5.18;1.67;;;26.40;95.90;;;;;;5000892;28;20096;-70
2022/10/05 13:38:05;;;;;;;4.85;1.27;;;26.00;97.40;;;;;;5014118;28;20478;-69
2022/10/05 13:41:27;;;;;;;5.63;1.30;;;26.10;97.00;;;;;;5014023;28;20065;-69
2022/10/05 13:44:33;;;;;;;2.05;1.20;;;27.00;96.20;;;;;;5024187;22;20069;-75
2022/10/05 13:47:33;;;;;;;2.38;1.00;;;27.10;94.90;;;;;;4997815;28;20129;-73
2022/10/05 13:50:12;;;;;;;7.83;0.80;;;26.40;96.30;;;;;;5013724;28;20036;-73
2022/10/05 13:52:50;;;;;;;4.93;0.98;;;27.30;95.50;;;;;;5013435;28;20284;-72
2022/10/05 13:55:42;;;;;;;5.22;1.17;;;28.30;94.40;;;;;;4980527;28;20101;-72
2022/10/05 13:58:31;;;;;;;2.38;0.90;;;27.70;94.10;;;;;;5027754;28;20537;-73
2022/10/05 14:01:07;;;;;;;1.58;0.70;;;26.20;95.80;;;;;;5027811;28;20652;-73
2022/10/05 14:03:36;;;;;;;6.20;1.27;;;26.00;96.40;;;;;;5040049;28;20025;-73
2022/10/05 14:06:28;;;;;;;2.00;0.73;;;26.40;95.90;;;;;;5048487;28;20033;-73
2022/10/05 14:08:56;;;;;;;5.53;0.80;;;25.70;97.00;;;;;;5033424;28;20032;-73
2022/10/05 14:11:34;;;;;;;2.63;1.23;;;25.90;96.70;;;;;;5048380;28;20021;-73
2022/10/05 14:14:20;;;;;;;5.60;1.30;;;25.00;98.20;;;;;;5047830;28;20033;-72
2022/10/05 14:16:54;;;;;;;2.20;1.05;;;25.20;99.00;;;;;;5027778;28;20022;-72
2022/10/05 14:19:22;;;;;;;1.23;0.70;;;25.50;97.90;;;;;;5012690;28;20109;-72
2022/10/05 14:22:21;;;;;;;5.38;0.70;;;25.80;97.60;;;;;;5013394;28;20029;-72
2022/10/05 14:25:07;;;;;;;4.18;1.55;;;25.90;97.30;;;;;;5013159;28;20396;-72
2022/10/05 14:27:46;;;;;;;2.85;1.17;;;26.70;96.40;;;;;;5013348;28;20038;-72
2022/10/05 14:30:25;;;;;;;1.92;1.15;;;27.20;95.70;;;;;;5012954;28;20081;-73
2022/10/05 14:33:05;;;;;;;5.63;1.10;;;26.00;96.50;;;;;;5034237;28;20075;-72
2022/10/05 14:35:55;;;;;;;1.80;0.95;;;26.60;96.10;;;;;;5048333;28;20473;-72
2022/10/05 14:38:30;;;;;;;1.20;0.77;;;26.20;97.00;;;;;;5047631;28;20808;-72
2022/10/05 14:41:02;;;;;;;4.28;1.23;;;25.50;98.10;;;;;;5047950;28;20036;-72
2022/10/05 14:43:28;;;;;;;1.92;0.75;;;25.80;97.80;;;;;;5032094;28;20502;-73
2022/10/05 14:46:03;;;;;;;1.65;0.82;;;25.50;97.50;;;;;;5047748;28;20044;-72
2022/10/05 14:48:41;;;;;;;1.90;1.05;;;25.10;98.20;;;;;;5032789;28;20041;-73